sensor_id;sensor_type;location;lat;lon;timestamp;P1;durP1;ratioP1;P2;durP2;ratioP2
15077;SDS011;7638;49.760;8.646;2024-03-08T00:01:15;22.63;;;10.53;;
15077;SDS011;7638;49.760;8.646;2024-03-08T00:03:44;15.67;;;9.80;;
15077;SDS011;7638;49.760;8.646;2024-03-08T00:06:10;18.33;;;10.37;;
15077;SDS011;7638;49.760;8.646;2024-03-08T00:08:36;14.47;;;9.73;;
15077;SDS011;7638;49.760;8.646;2024-03-08T00:11:02;15.77;;;9.40;;
15077;SDS011;7638;49.760;8.646;2024-03-08T00:13:28;21.03;;;11.10;;
15077;SDS011;7638;49.760;8.646;2024-03-08T00:15:54;17.87;;;10.73;;
15077;SDS011;7638;49.760;8.646;2024-03-08T00:18:22;15.90;;;10.17;;
15077;SDS011;7638;49.760;8.646;2024-03-08T00:20:48;13.17;;;10.30;;
15077;SDS011;7638;49.760;8.646;2024-03-08T00:23:16;17.93;;;10.77;;
15077;SDS011;7638;49.760;8.646;2024-03-08T00:25:42;16.10;;;10.10;;
15077;SDS011;7638;49.760;8.646;2024-03-08T00:28:08;13.97;;;9.53;;
15077;SDS011;7638;49.760;8.646;2024-03-08T00:30:34;14.33;;;9.50;;
15077;SDS011;7638;49.760;8.646;2024-03-08T00:33:00;14.03;;;10.70;;
15077;SDS011;7638;49.760;8.646;2024-03-08T00:35:26;17.77;;;9.73;;
15077;SDS011;7638;49.760;8.646;2024-03-08T00:37:52;16.57;;;10.33;;
15077;SDS011;7638;49.760;8.646;2024-03-08T00:40:21;18.80;;;10.97;;
15077;SDS011;7638;49.760;8.646;2024-03-08T00:42:47;17.97;;;9.87;;
15077;SDS011;7638;49.760;8.646;2024-03-08T00:45:14;17.87;;;10.87;;
15077;SDS011;7638;49.760;8.646;2024-03-08T00:47:40;18.20;;;10.53;;
15077;SDS011;7638;49.760;8.646;2024-03-08T00:50:09;20.97;;;10.60;;
15077;SDS011;7638;49.760;8.646;2024-03-08T00:52:35;17.73;;;9.63;;
15077;SDS011;7638;49.760;8.646;2024-03-08T00:55:01;17.57;;;10.70;;
15077;SDS011;7638;49.760;8.646;2024-03-08T00:57:27;16.50;;;10.30;;
15077;SDS011;7638;49.760;8.646;2024-03-08T00:59:54;16.50;;;10.67;;
15077;SDS011;7638;49.760;8.646;2024-03-08T01:02:21;18.97;;;10.43;;
15077;SDS011;7638;49.760;8.646;2024-03-08T01:04:48;15.33;;;9.40;;
15077;SDS011;7638;49.760;8.646;2024-03-08T01:07:14;15.03;;;9.63;;
15077;SDS011;7638;49.760;8.646;2024-03-08T01:09:40;17.17;;;9.90;;
15077;SDS011;7638;49.760;8.646;2024-03-08T01:12:06;20.07;;;10.60;;
15077;SDS011;7638;49.760;8.646;2024-03-08T01:14:32;18.33;;;10.07;;
15077;SDS011;7638;49.760;8.646;2024-03-08T01:16:58;17.07;;;11.03;;
15077;SDS011;7638;49.760;8.646;2024-03-08T01:19:24;17.27;;;10.57;;
15077;SDS011;7638;49.760;8.646;2024-03-08T01:21:50;17.67;;;10.83;;
15077;SDS011;7638;49.760;8.646;2024-03-08T01:24:16;22.23;;;10.30;;
15077;SDS011;7638;49.760;8.646;2024-03-08T01:26:42;19.40;;;10.10;;
15077;SDS011;7638;49.760;8.646;2024-03-08T01:29:08;20.13;;;11.83;;
15077;SDS011;7638;49.760;8.646;2024-03-08T01:31:34;15.30;;;10.37;;
15077;SDS011;7638;49.760;8.646;2024-03-08T01:34:01;17.47;;;9.90;;
15077;SDS011;7638;49.760;8.646;2024-03-08T01:36:27;14.23;;;10.13;;
15077;SDS011;7638;49.760;8.646;2024-03-08T01:38:53;18.63;;;11.57;;
15077;SDS011;7638;49.760;8.646;2024-03-08T01:41:19;20.40;;;10.67;;
15077;SDS011;7638;49.760;8.646;2024-03-08T01:43:45;17.37;;;10.00;;
15077;SDS011;7638;49.760;8.646;2024-03-08T01:46:12;18.53;;;11.43;;
15077;SDS011;7638;49.760;8.646;2024-03-08T01:48:41;16.93;;;9.87;;
15077;SDS011;7638;49.760;8.646;2024-03-08T01:51:07;14.70;;;10.10;;
15077;SDS011;7638;49.760;8.646;2024-03-08T01:53:33;18.50;;;11.10;;
15077;SDS011;7638;49.760;8.646;2024-03-08T01:56:00;20.90;;;11.33;;
15077;SDS011;7638;49.760;8.646;2024-03-08T01:58:27;21.80;;;11.47;;
15077;SDS011;7638;49.760;8.646;2024-03-08T02:00:54;17.73;;;11.07;;
15077;SDS011;7638;49.760;8.646;2024-03-08T02:03:21;17.10;;;10.20;;
15077;SDS011;7638;49.760;8.646;2024-03-08T02:05:47;17.80;;;10.43;;
15077;SDS011;7638;49.760;8.646;2024-03-08T02:08:14;15.13;;;9.97;;
15077;SDS011;7638;49.760;8.646;2024-03-08T02:10:41;17.47;;;11.23;;
15077;SDS011;7638;49.760;8.646;2024-03-08T02:13:07;16.63;;;10.43;;
15077;SDS011;7638;49.760;8.646;2024-03-08T02:15:52;17.47;;;11.20;;
15077;SDS011;7638;49.760;8.646;2024-03-08T02:18:19;22.33;;;11.53;;
15077;SDS011;7638;49.760;8.646;2024-03-08T02:20:48;18.93;;;10.83;;
15077;SDS011;7638;49.760;8.646;2024-03-08T02:23:15;15.67;;;10.27;;
15077;SDS011;7638;49.760;8.646;2024-03-08T02:25:41;19.30;;;10.80;;
15077;SDS011;7638;49.760;8.646;2024-03-08T02:28:08;16.47;;;9.90;;
15077;SDS011;7638;49.760;8.646;2024-03-08T02:30:34;14.27;;;9.90;;
15077;SDS011;7638;49.760;8.646;2024-03-08T02:33:01;17.83;;;10.00;;
15077;SDS011;7638;49.760;8.646;2024-03-08T02:35:26;17.13;;;10.90;;
15077;SDS011;7638;49.760;8.646;2024-03-08T02:37:52;15.83;;;9.57;;
15077;SDS011;7638;49.760;8.646;2024-03-08T02:40:18;17.47;;;10.10;;
15077;SDS011;7638;49.760;8.646;2024-03-08T02:42:44;15.30;;;9.60;;
15077;SDS011;7638;49.760;8.646;2024-03-08T02:45:10;17.27;;;9.87;;
15077;SDS011;7638;49.760;8.646;2024-03-08T02:47:36;14.97;;;9.13;;
15077;SDS011;7638;49.760;8.646;2024-03-08T02:50:02;18.00;;;10.20;;
15077;SDS011;7638;49.760;8.646;2024-03-08T02:52:29;17.83;;;10.90;;
15077;SDS011;7638;49.760;8.646;2024-03-08T02:54:55;17.27;;;10.37;;
15077;SDS011;7638;49.760;8.646;2024-03-08T02:57:21;17.67;;;10.87;;
15077;SDS011;7638;49.760;8.646;2024-03-08T02:59:47;15.30;;;10.00;;
15077;SDS011;7638;49.760;8.646;2024-03-08T03:02:13;21.43;;;10.83;;
15077;SDS011;7638;49.760;8.646;2024-03-08T03:04:40;16.30;;;10.30;;
15077;SDS011;7638;49.760;8.646;2024-03-08T03:07:06;20.07;;;11.33;;
15077;SDS011;7638;49.760;8.646;2024-03-08T03:09:32;18.97;;;9.93;;
15077;SDS011;7638;49.760;8.646;2024-03-08T03:11:58;18.50;;;10.17;;
15077;SDS011;7638;49.760;8.646;2024-03-08T03:14:24;17.37;;;10.60;;
15077;SDS011;7638;49.760;8.646;2024-03-08T03:16:52;20.30;;;10.97;;
15077;SDS011;7638;49.760;8.646;2024-03-08T03:19:19;17.57;;;10.77;;
15077;SDS011;7638;49.760;8.646;2024-03-08T03:21:45;22.90;;;11.13;;
15077;SDS011;7638;49.760;8.646;2024-03-08T03:24:12;19.30;;;10.43;;
15077;SDS011;7638;49.760;8.646;2024-03-08T03:26:41;23.73;;;11.73;;
15077;SDS011;7638;49.760;8.646;2024-03-08T03:29:08;18.13;;;10.47;;
15077;SDS011;7638;49.760;8.646;2024-03-08T03:31:36;20.07;;;10.90;;
15077;SDS011;7638;49.760;8.646;2024-03-08T03:34:02;22.03;;;11.43;;
15077;SDS011;7638;49.760;8.646;2024-03-08T03:36:29;19.37;;;11.63;;
15077;SDS011;7638;49.760;8.646;2024-03-08T03:38:55;23.87;;;10.60;;
15077;SDS011;7638;49.760;8.646;2024-03-08T03:41:35;15.67;;;10.27;;
15077;SDS011;7638;49.760;8.646;2024-03-08T03:44:01;24.43;;;13.47;;
15077;SDS011;7638;49.760;8.646;2024-03-08T03:46:27;16.07;;;10.10;;
15077;SDS011;7638;49.760;8.646;2024-03-08T03:48:56;18.23;;;10.20;;
15077;SDS011;7638;49.760;8.646;2024-03-08T03:51:22;18.97;;;11.43;;
15077;SDS011;7638;49.760;8.646;2024-03-08T03:53:48;16.03;;;10.47;;
15077;SDS011;7638;49.760;8.646;2024-03-08T03:56:14;19.40;;;11.30;;
15077;SDS011;7638;49.760;8.646;2024-03-08T03:58:40;20.17;;;10.60;;
15077;SDS011;7638;49.760;8.646;2024-03-08T04:04:09;20.27;;;11.60;;
15077;SDS011;7638;49.760;8.646;2024-03-08T04:06:37;20.63;;;10.70;;
15077;SDS011;7638;49.760;8.646;2024-03-08T04:09:03;23.03;;;12.00;;
15077;SDS011;7638;49.760;8.646;2024-03-08T04:11:32;17.47;;;10.63;;
15077;SDS011;7638;49.760;8.646;2024-03-08T04:13:59;20.87;;;11.10;;
15077;SDS011;7638;49.760;8.646;2024-03-08T04:16:25;17.73;;;11.00;;
15077;SDS011;7638;49.760;8.646;2024-03-08T04:18:52;16.47;;;10.63;;
15077;SDS011;7638;49.760;8.646;2024-03-08T04:21:18;19.80;;;11.37;;
15077;SDS011;7638;49.760;8.646;2024-03-08T04:23:44;22.70;;;12.03;;
15077;SDS011;7638;49.760;8.646;2024-03-08T04:26:11;17.30;;;11.23;;
15077;SDS011;7638;49.760;8.646;2024-03-08T04:28:38;17.03;;;10.63;;
15077;SDS011;7638;49.760;8.646;2024-03-08T04:31:04;21.53;;;10.90;;
15077;SDS011;7638;49.760;8.646;2024-03-08T04:33:31;15.13;;;9.60;;
15077;SDS011;7638;49.760;8.646;2024-03-08T04:35:57;19.23;;;11.57;;
15077;SDS011;7638;49.760;8.646;2024-03-08T04:38:23;19.87;;;10.23;;
15077;SDS011;7638;49.760;8.646;2024-03-08T04:40:49;20.67;;;10.97;;
15077;SDS011;7638;49.760;8.646;2024-03-08T04:43:16;20.97;;;11.87;;
15077;SDS011;7638;49.760;8.646;2024-03-08T04:45:43;21.90;;;12.67;;
15077;SDS011;7638;49.760;8.646;2024-03-08T04:48:09;22.27;;;10.87;;
15077;SDS011;7638;49.760;8.646;2024-03-08T04:50:36;20.30;;;11.93;;
15077;SDS011;7638;49.760;8.646;2024-03-08T04:53:03;18.53;;;11.43;;
15077;SDS011;7638;49.760;8.646;2024-03-08T04:55:33;18.33;;;12.27;;
15077;SDS011;7638;49.760;8.646;2024-03-08T04:57:59;19.70;;;11.17;;
15077;SDS011;7638;49.760;8.646;2024-03-08T05:00:25;20.27;;;11.00;;
15077;SDS011;7638;49.760;8.646;2024-03-08T05:02:51;21.20;;;11.20;;
15077;SDS011;7638;49.760;8.646;2024-03-08T05:05:18;22.40;;;12.57;;
15077;SDS011;7638;49.760;8.646;2024-03-08T05:07:44;23.57;;;12.30;;
15077;SDS011;7638;49.760;8.646;2024-03-08T05:10:10;28.30;;;12.43;;
15077;SDS011;7638;49.760;8.646;2024-03-08T05:12:37;23.50;;;12.17;;
15077;SDS011;7638;49.760;8.646;2024-03-08T05:15:06;22.93;;;13.60;;
15077;SDS011;7638;49.760;8.646;2024-03-08T05:17:32;21.67;;;11.93;;
15077;SDS011;7638;49.760;8.646;2024-03-08T05:19:58;19.93;;;12.10;;
15077;SDS011;7638;49.760;8.646;2024-03-08T05:22:24;23.97;;;12.50;;
15077;SDS011;7638;49.760;8.646;2024-03-08T05:24:51;20.57;;;11.50;;
15077;SDS011;7638;49.760;8.646;2024-03-08T05:27:17;20.07;;;11.33;;
15077;SDS011;7638;49.760;8.646;2024-03-08T05:29:43;18.40;;;11.03;;
15077;SDS011;7638;49.760;8.646;2024-03-08T05:32:09;18.80;;;11.73;;
15077;SDS011;7638;49.760;8.646;2024-03-08T05:34:35;20.47;;;11.60;;
15077;SDS011;7638;49.760;8.646;2024-03-08T05:37:01;21.03;;;11.30;;
15077;SDS011;7638;49.760;8.646;2024-03-08T05:39:27;20.80;;;11.13;;
15077;SDS011;7638;49.760;8.646;2024-03-08T05:41:54;18.90;;;11.30;;
15077;SDS011;7638;49.760;8.646;2024-03-08T05:44:20;20.47;;;12.77;;
15077;SDS011;7638;49.760;8.646;2024-03-08T05:46:46;18.90;;;10.77;;
15077;SDS011;7638;49.760;8.646;2024-03-08T05:49:12;19.07;;;11.73;;
15077;SDS011;7638;49.760;8.646;2024-03-08T05:51:39;18.83;;;11.33;;
15077;SDS011;7638;49.760;8.646;2024-03-08T05:54:06;17.63;;;10.33;;
15077;SDS011;7638;49.760;8.646;2024-03-08T05:56:34;20.20;;;11.57;;
15077;SDS011;7638;49.760;8.646;2024-03-08T05:59:00;25.17;;;13.00;;
15077;SDS011;7638;49.760;8.646;2024-03-08T06:01:27;20.43;;;11.70;;
15077;SDS011;7638;49.760;8.646;2024-03-08T06:03:53;19.83;;;12.17;;
15077;SDS011;7638;49.760;8.646;2024-03-08T06:06:23;20.77;;;12.43;;
15077;SDS011;7638;49.760;8.646;2024-03-08T06:08:49;20.30;;;12.33;;
15077;SDS011;7638;49.760;8.646;2024-03-08T06:11:16;25.13;;;11.23;;
15077;SDS011;7638;49.760;8.646;2024-03-08T06:13:43;17.53;;;11.10;;
15077;SDS011;7638;49.760;8.646;2024-03-08T06:16:09;20.60;;;10.83;;
15077;SDS011;7638;49.760;8.646;2024-03-08T06:18:35;19.10;;;11.50;;
15077;SDS011;7638;49.760;8.646;2024-03-08T06:21:04;23.17;;;13.13;;
15077;SDS011;7638;49.760;8.646;2024-03-08T06:23:33;22.07;;;11.80;;
15077;SDS011;7638;49.760;8.646;2024-03-08T06:26:03;19.47;;;11.03;;
15077;SDS011;7638;49.760;8.646;2024-03-08T06:28:29;25.90;;;11.60;;
15077;SDS011;7638;49.760;8.646;2024-03-08T06:30:55;21.53;;;12.13;;
15077;SDS011;7638;49.760;8.646;2024-03-08T06:33:21;23.20;;;11.73;;
15077;SDS011;7638;49.760;8.646;2024-03-08T06:35:47;20.20;;;12.87;;
15077;SDS011;7638;49.760;8.646;2024-03-08T06:38:13;22.73;;;12.73;;
15077;SDS011;7638;49.760;8.646;2024-03-08T06:40:41;25.80;;;13.77;;
15077;SDS011;7638;49.760;8.646;2024-03-08T06:43:07;24.63;;;12.77;;
15077;SDS011;7638;49.760;8.646;2024-03-08T06:45:36;22.57;;;12.43;;
15077;SDS011;7638;49.760;8.646;2024-03-08T06:48:03;24.20;;;12.00;;
15077;SDS011;7638;49.760;8.646;2024-03-08T06:50:34;19.77;;;13.10;;
15077;SDS011;7638;49.760;8.646;2024-03-08T06:53:01;23.17;;;13.10;;
15077;SDS011;7638;49.760;8.646;2024-03-08T06:55:28;27.17;;;13.87;;
15077;SDS011;7638;49.760;8.646;2024-03-08T06:57:54;19.07;;;11.67;;
15077;SDS011;7638;49.760;8.646;2024-03-08T07:00:20;19.50;;;11.73;;
15077;SDS011;7638;49.760;8.646;2024-03-08T07:02:51;27.27;;;12.87;;
15077;SDS011;7638;49.760;8.646;2024-03-08T07:05:18;20.80;;;12.07;;
15077;SDS011;7638;49.760;8.646;2024-03-08T07:07:44;22.00;;;11.63;;
15077;SDS011;7638;49.760;8.646;2024-03-08T07:10:13;23.60;;;12.50;;
15077;SDS011;7638;49.760;8.646;2024-03-08T07:12:40;21.67;;;12.07;;
15077;SDS011;7638;49.760;8.646;2024-03-08T07:15:07;20.67;;;12.47;;
15077;SDS011;7638;49.760;8.646;2024-03-08T07:17:38;20.33;;;12.07;;
15077;SDS011;7638;49.760;8.646;2024-03-08T07:20:04;20.87;;;12.60;;
15077;SDS011;7638;49.760;8.646;2024-03-08T07:22:35;23.70;;;11.23;;
15077;SDS011;7638;49.760;8.646;2024-03-08T07:25:02;19.17;;;13.17;;
15077;SDS011;7638;49.760;8.646;2024-03-08T07:27:43;26.37;;;12.70;;
15077;SDS011;7638;49.760;8.646;2024-03-08T07:30:10;19.77;;;12.73;;
15077;SDS011;7638;49.760;8.646;2024-03-08T07:32:37;20.87;;;12.00;;
15077;SDS011;7638;49.760;8.646;2024-03-08T07:35:03;21.23;;;12.40;;
15077;SDS011;7638;49.760;8.646;2024-03-08T07:37:29;23.10;;;12.57;;
15077;SDS011;7638;49.760;8.646;2024-03-08T07:39:56;20.80;;;11.67;;
15077;SDS011;7638;49.760;8.646;2024-03-08T07:42:23;17.90;;;11.80;;
15077;SDS011;7638;49.760;8.646;2024-03-08T07:44:49;19.67;;;12.20;;
15077;SDS011;7638;49.760;8.646;2024-03-08T07:47:15;22.80;;;12.70;;
15077;SDS011;7638;49.760;8.646;2024-03-08T07:49:43;23.83;;;12.50;;
15077;SDS011;7638;49.760;8.646;2024-03-08T07:52:09;20.03;;;11.97;;
15077;SDS011;7638;49.760;8.646;2024-03-08T07:54:40;18.07;;;11.00;;
15077;SDS011;7638;49.760;8.646;2024-03-08T07:57:06;21.70;;;11.00;;
15077;SDS011;7638;49.760;8.646;2024-03-08T07:59:32;19.53;;;11.23;;
15077;SDS011;7638;49.760;8.646;2024-03-08T08:01:58;18.57;;;12.23;;
15077;SDS011;7638;49.760;8.646;2024-03-08T08:04:24;20.40;;;11.87;;
15077;SDS011;7638;49.760;8.646;2024-03-08T08:06:51;18.77;;;12.10;;
15077;SDS011;7638;49.760;8.646;2024-03-08T08:09:19;18.90;;;11.60;;
15077;SDS011;7638;49.760;8.646;2024-03-08T08:11:53;19.67;;;11.60;;
15077;SDS011;7638;49.760;8.646;2024-03-08T08:14:19;18.80;;;11.20;;
15077;SDS011;7638;49.760;8.646;2024-03-08T08:16:46;18.53;;;11.27;;
15077;SDS011;7638;49.760;8.646;2024-03-08T08:19:13;22.00;;;11.50;;
15077;SDS011;7638;49.760;8.646;2024-03-08T08:21:39;19.47;;;10.90;;
15077;SDS011;7638;49.760;8.646;2024-03-08T08:24:05;17.87;;;11.23;;
15077;SDS011;7638;49.760;8.646;2024-03-08T08:26:31;18.70;;;11.43;;
15077;SDS011;7638;49.760;8.646;2024-03-08T08:29:01;20.13;;;11.20;;
15077;SDS011;7638;49.760;8.646;2024-03-08T08:31:27;24.63;;;12.57;;
15077;SDS011;7638;49.760;8.646;2024-03-08T08:33:53;19.83;;;11.17;;
15077;SDS011;7638;49.760;8.646;2024-03-08T08:36:23;19.53;;;11.73;;
15077;SDS011;7638;49.760;8.646;2024-03-08T08:38:49;16.30;;;10.63;;
15077;SDS011;7638;49.760;8.646;2024-03-08T08:41:15;16.83;;;10.43;;
15077;SDS011;7638;49.760;8.646;2024-03-08T08:43:42;22.33;;;10.17;;
15077;SDS011;7638;49.760;8.646;2024-03-08T08:46:11;17.67;;;10.90;;
15077;SDS011;7638;49.760;8.646;2024-03-08T08:48:38;20.80;;;11.03;;
15077;SDS011;7638;49.760;8.646;2024-03-08T08:51:06;15.57;;;10.47;;
15077;SDS011;7638;49.760;8.646;2024-03-08T08:53:37;20.83;;;11.13;;
15077;SDS011;7638;49.760;8.646;2024-03-08T08:56:03;18.47;;;10.83;;
15077;SDS011;7638;49.760;8.646;2024-03-08T08:58:29;17.17;;;11.20;;
15077;SDS011;7638;49.760;8.646;2024-03-08T09:00:55;14.83;;;9.80;;
15077;SDS011;7638;49.760;8.646;2024-03-08T09:03:21;16.23;;;9.67;;
15077;SDS011;7638;49.760;8.646;2024-03-08T09:05:48;15.73;;;9.87;;
15077;SDS011;7638;49.760;8.646;2024-03-08T09:08:14;15.77;;;9.20;;
15077;SDS011;7638;49.760;8.646;2024-03-08T09:10:40;21.00;;;9.30;;
15077;SDS011;7638;49.760;8.646;2024-03-08T09:13:06;16.63;;;9.70;;
15077;SDS011;7638;49.760;8.646;2024-03-08T09:15:35;14.57;;;9.40;;
15077;SDS011;7638;49.760;8.646;2024-03-08T09:18:01;17.00;;;9.53;;
15077;SDS011;7638;49.760;8.646;2024-03-08T09:20:27;18.47;;;9.67;;
15077;SDS011;7638;49.760;8.646;2024-03-08T09:22:54;19.90;;;10.27;;
15077;SDS011;7638;49.760;8.646;2024-03-08T09:25:20;13.67;;;9.20;;
15077;SDS011;7638;49.760;8.646;2024-03-08T09:27:47;17.47;;;10.77;;
15077;SDS011;7638;49.760;8.646;2024-03-08T09:30:13;15.73;;;10.03;;
15077;SDS011;7638;49.760;8.646;2024-03-08T09:32:40;15.03;;;9.30;;
15077;SDS011;7638;49.760;8.646;2024-03-08T09:35:06;16.20;;;9.53;;
15077;SDS011;7638;49.760;8.646;2024-03-08T09:37:35;14.80;;;9.10;;
15077;SDS011;7638;49.760;8.646;2024-03-08T09:40:02;14.97;;;9.20;;
15077;SDS011;7638;49.760;8.646;2024-03-08T09:42:34;17.37;;;10.83;;
15077;SDS011;7638;49.760;8.646;2024-03-08T09:45:03;14.00;;;8.90;;
15077;SDS011;7638;49.760;8.646;2024-03-08T09:47:29;19.20;;;10.43;;
15077;SDS011;7638;49.760;8.646;2024-03-08T09:49:58;15.57;;;10.00;;
15077;SDS011;7638;49.760;8.646;2024-03-08T09:52:24;14.73;;;10.13;;
15077;SDS011;7638;49.760;8.646;2024-03-08T09:54:51;16.13;;;9.53;;
15077;SDS011;7638;49.760;8.646;2024-03-08T09:57:17;19.83;;;10.37;;
15077;SDS011;7638;49.760;8.646;2024-03-08T09:59:44;17.17;;;10.30;;
15077;SDS011;7638;49.760;8.646;2024-03-08T10:02:16;17.23;;;10.33;;
15077;SDS011;7638;49.760;8.646;2024-03-08T10:04:42;15.63;;;9.77;;
15077;SDS011;7638;49.760;8.646;2024-03-08T10:07:11;17.43;;;10.80;;
15077;SDS011;7638;49.760;8.646;2024-03-08T10:09:37;16.90;;;10.03;;
15077;SDS011;7638;49.760;8.646;2024-03-08T10:12:04;18.10;;;10.67;;
15077;SDS011;7638;49.760;8.646;2024-03-08T10:14:30;17.63;;;9.67;;
15077;SDS011;7638;49.760;8.646;2024-03-08T10:16:57;16.83;;;10.30;;
15077;SDS011;7638;49.760;8.646;2024-03-08T10:19:26;17.30;;;10.47;;
15077;SDS011;7638;49.760;8.646;2024-03-08T10:21:55;17.03;;;11.17;;
15077;SDS011;7638;49.760;8.646;2024-03-08T10:24:23;19.20;;;9.83;;
15077;SDS011;7638;49.760;8.646;2024-03-08T10:26:53;23.10;;;10.63;;
15077;SDS011;7638;49.760;8.646;2024-03-08T10:29:19;16.40;;;10.80;;
15077;SDS011;7638;49.760;8.646;2024-03-08T10:31:47;18.23;;;10.40;;
15077;SDS011;7638;49.760;8.646;2024-03-08T10:34:16;15.27;;;10.23;;
15077;SDS011;7638;49.760;8.646;2024-03-08T10:36:42;19.07;;;10.97;;
15077;SDS011;7638;49.760;8.646;2024-03-08T10:39:19;16.43;;;10.23;;
15077;SDS011;7638;49.760;8.646;2024-03-08T10:41:48;17.83;;;10.80;;
15077;SDS011;7638;49.760;8.646;2024-03-08T10:45:01;19.43;;;10.73;;
15077;SDS011;7638;49.760;8.646;2024-03-08T10:49:38;16.77;;;10.60;;
15077;SDS011;7638;49.760;8.646;2024-03-08T10:52:07;16.47;;;10.13;;
15077;SDS011;7638;49.760;8.646;2024-03-08T10:54:34;16.23;;;10.83;;
15077;SDS011;7638;49.760;8.646;2024-03-08T10:57:03;14.27;;;9.40;;
15077;SDS011;7638;49.760;8.646;2024-03-08T10:59:31;16.47;;;10.07;;
15077;SDS011;7638;49.760;8.646;2024-03-08T11:01:59;16.47;;;10.40;;
15077;SDS011;7638;49.760;8.646;2024-03-08T11:04:25;16.53;;;11.30;;
15077;SDS011;7638;49.760;8.646;2024-03-08T11:06:52;14.20;;;10.07;;
15077;SDS011;7638;49.760;8.646;2024-03-08T11:09:27;15.53;;;10.33;;
15077;SDS011;7638;49.760;8.646;2024-03-08T11:12:28;17.83;;;11.07;;
15077;SDS011;7638;49.760;8.646;2024-03-08T11:14:47;14.13;;;9.73;;
15077;SDS011;7638;49.760;8.646;2024-03-08T11:19:57;18.40;;;10.27;;
15077;SDS011;7638;49.760;8.646;2024-03-08T11:22:28;17.50;;;10.77;;
15077;SDS011;7638;49.760;8.646;2024-03-08T11:25:07;20.53;;;11.83;;
15077;SDS011;7638;49.760;8.646;2024-03-08T11:27:38;19.30;;;11.70;;
15077;SDS011;7638;49.760;8.646;2024-03-08T11:30:04;15.67;;;10.17;;
15077;SDS011;7638;49.760;8.646;2024-03-08T11:32:37;19.50;;;11.17;;
15077;SDS011;7638;49.760;8.646;2024-03-08T11:35:05;18.07;;;11.37;;
15077;SDS011;7638;49.760;8.646;2024-03-08T11:37:33;17.00;;;10.23;;
15077;SDS011;7638;49.760;8.646;2024-03-08T11:40:02;17.00;;;10.70;;
15077;SDS011;7638;49.760;8.646;2024-03-08T11:42:39;17.10;;;10.67;;
15077;SDS011;7638;49.760;8.646;2024-03-08T11:45:09;15.40;;;10.27;;
15077;SDS011;7638;49.760;8.646;2024-03-08T11:47:36;16.43;;;10.17;;
15077;SDS011;7638;49.760;8.646;2024-03-08T11:50:05;17.83;;;11.03;;
15077;SDS011;7638;49.760;8.646;2024-03-08T11:52:35;16.23;;;10.37;;
15077;SDS011;7638;49.760;8.646;2024-03-08T11:55:02;19.23;;;10.27;;
15077;SDS011;7638;49.760;8.646;2024-03-08T11:57:30;14.13;;;10.07;;
15077;SDS011;7638;49.760;8.646;2024-03-08T11:59:58;17.07;;;10.60;;
15077;SDS011;7638;49.760;8.646;2024-03-08T12:02:32;16.53;;;10.87;;
15077;SDS011;7638;49.760;8.646;2024-03-08T12:05:00;13.47;;;9.60;;
15077;SDS011;7638;49.760;8.646;2024-03-08T12:07:28;17.00;;;10.30;;
15077;SDS011;7638;49.760;8.646;2024-03-08T12:12:42;15.67;;;9.90;;
15077;SDS011;7638;49.760;8.646;2024-03-08T12:24:18;16.90;;;10.43;;
15077;SDS011;7638;49.760;8.646;2024-03-08T12:26:45;15.43;;;10.13;;
15077;SDS011;7638;49.760;8.646;2024-03-08T12:29:17;19.57;;;10.40;;
15077;SDS011;7638;49.760;8.646;2024-03-08T12:31:45;17.03;;;11.10;;
15077;SDS011;7638;49.760;8.646;2024-03-08T12:34:11;16.60;;;9.93;;
15077;SDS011;7638;49.760;8.646;2024-03-08T12:36:44;14.93;;;10.40;;
15077;SDS011;7638;49.760;8.646;2024-03-08T12:39:12;14.70;;;10.37;;
15077;SDS011;7638;49.760;8.646;2024-03-08T12:41:40;17.93;;;10.27;;
15077;SDS011;7638;49.760;8.646;2024-03-08T12:44:06;14.77;;;10.47;;
15077;SDS011;7638;49.760;8.646;2024-03-08T12:46:36;18.27;;;11.03;;
15077;SDS011;7638;49.760;8.646;2024-03-08T12:49:05;14.63;;;10.03;;
15077;SDS011;7638;49.760;8.646;2024-03-08T12:51:34;16.63;;;8.70;;
15077;SDS011;7638;49.760;8.646;2024-03-08T12:54:00;14.87;;;9.73;;
15077;SDS011;7638;49.760;8.646;2024-03-08T12:56:30;21.60;;;11.57;;
15077;SDS011;7638;49.760;8.646;2024-03-08T12:58:57;14.80;;;9.73;;
15077;SDS011;7638;49.760;8.646;2024-03-08T13:01:23;13.80;;;9.47;;
15077;SDS011;7638;49.760;8.646;2024-03-08T13:03:49;15.53;;;9.73;;
15077;SDS011;7638;49.760;8.646;2024-03-08T13:06:15;15.37;;;9.90;;
15077;SDS011;7638;49.760;8.646;2024-03-08T13:08:41;13.93;;;9.13;;
15077;SDS011;7638;49.760;8.646;2024-03-08T13:11:09;15.37;;;9.83;;
15077;SDS011;7638;49.760;8.646;2024-03-08T13:13:39;16.17;;;10.27;;
15077;SDS011;7638;49.760;8.646;2024-03-08T13:16:05;17.00;;;9.93;;
15077;SDS011;7638;49.760;8.646;2024-03-08T13:18:35;17.43;;;10.00;;
15077;SDS011;7638;49.760;8.646;2024-03-08T13:21:01;17.70;;;9.70;;
15077;SDS011;7638;49.760;8.646;2024-03-08T13:23:31;14.43;;;9.87;;
15077;SDS011;7638;49.760;8.646;2024-03-08T13:25:57;16.73;;;9.60;;
15077;SDS011;7638;49.760;8.646;2024-03-08T13:28:23;15.90;;;9.97;;
15077;SDS011;7638;49.760;8.646;2024-03-08T13:30:55;13.37;;;9.57;;
15077;SDS011;7638;49.760;8.646;2024-03-08T13:33:26;17.07;;;10.50;;
15077;SDS011;7638;49.760;8.646;2024-03-08T13:35:52;16.70;;;10.07;;
15077;SDS011;7638;49.760;8.646;2024-03-08T13:38:18;14.50;;;10.13;;
15077;SDS011;7638;49.760;8.646;2024-03-08T13:40:45;16.17;;;10.50;;
15077;SDS011;7638;49.760;8.646;2024-03-08T13:43:16;16.73;;;10.70;;
15077;SDS011;7638;49.760;8.646;2024-03-08T13:45:42;13.07;;;9.60;;
15077;SDS011;7638;49.760;8.646;2024-03-08T13:48:08;17.37;;;12.03;;
15077;SDS011;7638;49.760;8.646;2024-03-08T13:50:37;15.63;;;10.17;;
15077;SDS011;7638;49.760;8.646;2024-03-08T13:53:04;15.27;;;9.97;;
15077;SDS011;7638;49.760;8.646;2024-03-08T13:55:30;15.53;;;9.50;;
15077;SDS011;7638;49.760;8.646;2024-03-08T13:57:56;16.67;;;10.47;;
15077;SDS011;7638;49.760;8.646;2024-03-08T14:00:24;17.63;;;11.10;;
15077;SDS011;7638;49.760;8.646;2024-03-08T14:02:52;15.07;;;9.90;;
15077;SDS011;7638;49.760;8.646;2024-03-08T14:05:21;17.73;;;9.90;;
15077;SDS011;7638;49.760;8.646;2024-03-08T14:07:47;13.50;;;9.60;;
15077;SDS011;7638;49.760;8.646;2024-03-08T14:10:14;14.47;;;10.00;;
15077;SDS011;7638;49.760;8.646;2024-03-08T14:12:40;14.13;;;10.33;;
15077;SDS011;7638;49.760;8.646;2024-03-08T14:15:09;15.73;;;9.90;;
15077;SDS011;7638;49.760;8.646;2024-03-08T14:17:37;17.07;;;11.10;;
15077;SDS011;7638;49.760;8.646;2024-03-08T14:20:03;14.47;;;10.00;;
15077;SDS011;7638;49.760;8.646;2024-03-08T14:22:30;15.53;;;10.07;;
15077;SDS011;7638;49.760;8.646;2024-03-08T14:24:56;15.80;;;10.53;;
15077;SDS011;7638;49.760;8.646;2024-03-08T14:27:22;15.63;;;10.03;;
15077;SDS011;7638;49.760;8.646;2024-03-08T14:29:49;15.93;;;10.33;;
15077;SDS011;7638;49.760;8.646;2024-03-08T14:32:14;14.67;;;10.67;;
15077;SDS011;7638;49.760;8.646;2024-03-08T14:34:44;12.93;;;9.03;;
15077;SDS011;7638;49.760;8.646;2024-03-08T14:37:11;18.17;;;9.70;;
15077;SDS011;7638;49.760;8.646;2024-03-08T14:39:38;15.20;;;9.83;;
15077;SDS011;7638;49.760;8.646;2024-03-08T14:42:04;14.13;;;9.63;;
15077;SDS011;7638;49.760;8.646;2024-03-08T14:44:33;16.67;;;10.17;;
15077;SDS011;7638;49.760;8.646;2024-03-08T14:46:59;13.30;;;9.27;;
15077;SDS011;7638;49.760;8.646;2024-03-08T14:49:25;13.37;;;9.40;;
15077;SDS011;7638;49.760;8.646;2024-03-08T14:51:54;14.30;;;9.40;;
15077;SDS011;7638;49.760;8.646;2024-03-08T14:54:20;15.97;;;9.50;;
15077;SDS011;7638;49.760;8.646;2024-03-08T14:56:48;14.33;;;9.17;;
15077;SDS011;7638;49.760;8.646;2024-03-08T14:59:15;11.27;;;8.70;;